Time;durP1;ratioP1;P1;durP2;ratioP2;P2;SDS_P1;SDS_P2;PMS_P1;PMS_P2;Temp;Humidity;BMP_temperature;BMP_pressure;BME280_temperature;BME280_humidity;BME280_pressure;Samples;Min_cycle;Max_cycle;Signal;HPM_P1;HPM_P2
2023/11/26 00:01:47;;;;;;;;;;;;;;;3.16;100.00;97473.75;67553;1283;1016484;-69
2023/11/26 00:04:50;;;;;;;;;;;;;;;3.12;100.00;97472.71;67570;1283;1016114;-69
2023/11/26 00:07:52;;;;;;;;;;;;;;;3.16;100.00;97476.70;67479;1283;1016172;-70
2023/11/26 00:10:55;;;;;;;;;;;;;;;3.14;100.00;97480.09;67533;1283;1016709;-67
2023/11/26 00:13:58;;;;;;;;;;;;;;;3.08;100.00;97486.06;67561;1283;1016494;-69
2023/11/26 00:17:00;;;;;;;;;;;;;;;3.06;100.00;97490.50;67548;1283;1018245;-69
2023/11/26 00:20:06;;;;;;;;;;;;;;;3.07;100.00;97491.80;67534;1283;1016233;-70
2023/11/26 00:23:08;;;;;;;;;;;;;;;3.02;100.00;97496.41;67528;1283;1016023;-68
2023/11/26 00:26:11;;;;;;;;;;;;;;;2.93;100.00;97496.01;67553;1283;1016132;-70
2023/11/26 00:29:14;;;;;;;;;;;;;;;2.79;100.00;97496.21;67588;1283;1016058;-70
2023/11/26 00:32:17;;;;;;;;;;;;;;;2.76;100.00;97494.94;67538;1283;1016095;-70
2023/11/26 00:35:21;;;;;;;;;;;;;;;2.70;100.00;97500.09;67582;1283;1016922;-69
2023/11/26 00:38:23;;;;;;;;;;;;;;;2.73;100.00;97508.72;67542;1283;1015870;-69
2023/11/26 00:41:26;;;;;;;;;;;;;;;2.75;100.00;97514.15;67583;1283;1016406;-69
2023/11/26 00:44:29;;;;;;;;;;;;;;;2.76;100.00;97516.67;67541;1283;1016498;-69
2023/11/26 00:47:31;;;;;;;;;;;;;;;2.75;100.00;97523.86;67553;1283;1016496;-69
2023/11/26 00:50:34;;;;;;;;;;;;;;;2.68;100.00;97524.73;67593;1283;1016438;-70
2023/11/26 00:53:37;;;;;;;;;;;;;;;2.51;100.00;97526.58;67555;1283;1016491;-70
2023/11/26 00:56:39;;;;;;;;;;;;;;;2.52;100.00;97534.45;67558;1283;1016262;-70
2023/11/26 00:59:42;;;;;;;;;;;;;;;2.52;100.00;97535.85;67593;1283;1016520;-69
2023/11/26 01:02:45;;;;;;;;;;;;;;;2.62;100.00;97537.95;67578;1283;1016267;-70
2023/11/26 01:05:48;;;;;;;;;;;;;;;2.64;100.00;97534.73;67566;1283;1016753;-69
2023/11/26 01:08:50;;;;;;;;;;;;;;;2.55;100.00;97536.39;67562;1283;1016380;-69
2023/11/26 01:11:53;;;;;;;;;;;;;;;2.57;100.00;97538.20;67533;1283;1016105;-69
2023/11/26 01:14:56;;;;;;;;;;;;;;;2.72;100.00;97539.36;67571;1283;1016451;-69
2023/11/26 01:17:58;;;;;;;;;;;;;;;2.66;100.00;97542.95;67586;1283;1016132;-69
2023/11/26 01:21:01;;;;;;;;;;;;;;;2.35;100.00;97552.02;67543;1283;1016453;-69
2023/11/26 01:24:05;;;;;;;;;;;;;;;2.39;100.00;97552.52;67551;1283;1016441;-69
2023/11/26 01:27:08;;;;;;;;;;;;;;;2.30;100.00;97551.93;67588;1283;1016353;-69
2023/11/26 01:30:11;;;;;;;;;;;;;;;2.26;100.00;97551.92;67554;1283;1016344;-69
2023/11/26 01:33:14;;;;;;;;;;;;;;;2.32;100.00;97555.12;67569;1283;1018620;-68
2023/11/26 01:36:17;;;;;;;;;;;;;;;2.39;100.00;97558.23;67527;1283;1016501;-70
2023/11/26 01:39:20;;;;;;;;;;;;;;;2.44;100.00;97557.11;67559;1283;1016437;-69
2023/11/26 01:42:22;;;;;;;;;;;;;;;2.43;100.00;97558.88;67574;1283;1016603;-70
2023/11/26 01:45:25;;;;;;;;;;;;;;;2.37;100.00;97566.57;67564;1283;1016338;-69
2023/11/26 01:48:27;;;;;;;;;;;;;;;2.39;100.00;97568.39;67567;1283;1015886;-69
2023/11/26 01:51:30;;;;;;;;;;;;;;;2.37;100.00;97562.27;67575;1283;1016110;-68
2023/11/26 01:54:33;;;;;;;;;;;;;;;2.37;100.00;97560.58;67536;1283;1016090;-69
2023/11/26 01:57:35;;;;;;;;;;;;;;;2.29;100.00;97563.52;67531;1282;1016324;-69
2023/11/26 02:00:38;;;;;;;;;;;;;;;2.24;100.00;97562.21;67537;1283;1016440;-69
2023/11/26 02:03:41;;;;;;;;;;;;;;;2.22;100.00;97564.02;67575;1283;1016183;-69
2023/11/26 02:06:43;;;;;;;;;;;;;;;2.15;100.00;97567.64;67537;1283;1016208;-69
2023/11/26 02:09:46;;;;;;;;;;;;;;;2.23;100.00;97572.76;67570;1283;1018039;-69
2023/11/26 02:12:49;;;;;;;;;;;;;;;2.21;100.00;97574.39;67601;1283;1017178;-69
2023/11/26 02:15:51;;;;;;;;;;;;;;;2.17;100.00;97580.80;67560;1282;1018283;-69
2023/11/26 02:18:54;;;;;;;;;;;;;;;2.06;100.00;97581.13;67580;1283;1016559;-69
2023/11/26 02:21:56;;;;;;;;;;;;;;;2.16;100.00;97580.36;67602;1283;1016463;-69
2023/11/26 02:24:59;;;;;;;;;;;;;;;2.20;100.00;97583.44;67549;1283;1016708;-69
2023/11/26 02:28:05;;;;;;;;;;;;;;;2.16;100.00;97577.41;67581;1282;1016449;-69
2023/11/26 02:31:09;;;;;;;;;;;;;;;2.10;100.00;97575.48;67548;1283;1016260;-69
2023/11/26 02:34:12;;;;;;;;;;;;;;;2.16;100.00;97575.34;67581;1283;1016424;-69
2023/11/26 02:37:15;;;;;;;;;;;;;;;2.13;100.00;97579.79;67554;1283;1016452;-69
2023/11/26 02:40:19;;;;;;;;;;;;;;;2.11;100.00;97583.16;67548;1283;1015720;-69
2023/11/26 02:43:21;;;;;;;;;;;;;;;2.00;100.00;97586.27;67552;1283;1016611;-69
2023/11/26 02:46:24;;;;;;;;;;;;;;;1.90;100.00;97591.17;67560;1283;1016317;-69
2023/11/26 02:49:26;;;;;;;;;;;;;;;1.83;100.00;97591.70;67568;1283;1016412;-70
2023/11/26 02:52:29;;;;;;;;;;;;;;;1.74;100.00;97593.27;67524;1283;1016379;-68
2023/11/26 02:55:32;;;;;;;;;;;;;;;1.60;100.00;97593.73;67552;1283;1016430;-67
2023/11/26 02:58:34;;;;;;;;;;;;;;;1.47;100.00;97600.16;67563;1283;1016493;-70
2023/11/26 03:01:40;;;;;;;;;;;;;;;1.39;100.00;97610.47;67532;1282;1016409;-70
2023/11/26 03:04:48;;;;;;;;;;;;;;;1.39;100.00;97607.91;67565;1283;1015813;-69
2023/11/26 03:07:52;;;;;;;;;;;;;;;1.40;100.00;97607.71;67557;1283;1016897;-70
2023/11/26 03:14:15;;;;;;;;;;;;;;;1.50;100.00;97617.45;67571;1283;1016181;-70
2023/11/26 03:17:18;;;;;;;;;;;;;;;1.45;100.00;97621.42;67556;1283;1016080;-70
2023/11/26 03:20:31;;;;;;;;;;;;;;;1.35;100.00;97620.85;65014;1282;6395292;-70
2023/11/26 03:23:33;;;;;;;;;;;;;;;1.16;100.00;97622.84;67561;1283;1016429;-70
2023/11/26 03:26:36;;;;;;;;;;;;;;;0.98;100.00;97625.45;67536;1283;1016423;-69
2023/11/26 03:29:39;;;;;;;;;;;;;;;0.96;100.00;97627.13;67557;1283;1016952;-70
2023/11/26 03:32:41;;;;;;;;;;;;;;;0.98;100.00;97629.59;67551;1283;1016439;-70
2023/11/26 03:35:45;;;;;;;;;;;;;;;1.00;100.00;97634.17;67532;1283;1016491;-70
2023/11/26 03:38:47;;;;;;;;;;;;;;;1.12;100.00;97643.50;67542;1283;1016163;-70
2023/11/26 03:41:50;;;;;;;;;;;;;;;1.30;100.00;97639.81;67521;1283;1016435;-70
2023/11/26 03:44:53;;;;;;;;;;;;;;;1.32;100.00;97643.52;67563;1283;1016438;-71
2023/11/26 03:47:55;;;;;;;;;;;;;;;1.33;100.00;97646.94;67554;1283;1016510;-71
2023/11/26 03:50:58;;;;;;;;;;;;;;;1.32;100.00;97645.60;67544;1283;1016286;-70
2023/11/26 03:54:00;;;;;;;;;;;;;;;1.16;100.00;97650.89;67547;1283;1020268;-70
2023/11/26 03:57:03;;;;;;;;;;;;;;;1.04;100.00;97663.94;67583;1283;1016199;-70
2023/11/26 04:00:07;;;;;;;;;;;;;;;1.09;100.00;97667.90;67538;1283;1016507;-70
2023/11/26 04:03:10;;;;;;;;;;;;;;;1.10;100.00;97667.67;67511;1283;1015796;-70
2023/11/26 04:06:13;;;;;;;;;;;;;;;1.06;100.00;97673.19;67554;1283;1016179;-71
2023/11/26 04:09:15;;;;;;;;;;;;;;;0.90;100.00;97670.23;67530;1283;1016366;-70
2023/11/26 04:12:18;;;;;;;;;;;;;;;0.86;100.00;97674.86;67546;1283;1016436;-70
2023/11/26 04:15:22;;;;;;;;;;;;;;;0.86;100.00;97677.92;67505;1283;1016727;-70
2023/11/26 04:18:27;;;;;;;;;;;;;;;0.88;100.00;97677.54;67490;1283;1016535;-70
2023/11/26 04:21:30;;;;;;;;;;;;;;;0.86;100.00;97682.58;67553;1282;1016429;-70
2023/11/26 04:24:33;;;;;;;;;;;;;;;0.97;100.00;97687.34;67516;1283;1016497;-71
2023/11/26 04:27:36;;;;;;;;;;;;;;;0.90;100.00;97685.36;67545;1283;1016790;-70
2023/11/26 04:30:39;;;;;;;;;;;;;;;0.78;100.00;97685.85;67559;1283;1016540;-70
2023/11/26 04:33:41;;;;;;;;;;;;;;;0.97;100.00;97686.30;67545;1282;1016504;-70
2023/11/26 04:36:44;;;;;;;;;;;;;;;1.07;100.00;97692.25;67541;1283;1016360;-70
2023/11/26 04:39:48;;;;;;;;;;;;;;;1.09;100.00;97694.92;67523;1283;1016500;-69
2023/11/26 04:42:50;;;;;;;;;;;;;;;1.26;100.00;97699.05;67558;1283;1016552;-70
2023/11/26 04:45:53;;;;;;;;;;;;;;;1.24;100.00;97700.70;67514;1283;1016497;-69
2023/11/26 04:48:55;;;;;;;;;;;;;;;1.24;100.00;97698.96;67535;1283;1016241;-67
2023/11/26 04:51:58;;;;;;;;;;;;;;;1.32;100.00;97696.21;67544;1283;1016437;-70
2023/11/26 04:55:02;;;;;;;;;;;;;;;1.35;100.00;97699.39;67553;1283;1016403;-71
2023/11/26 04:58:04;;;;;;;;;;;;;;;1.40;100.00;97704.86;67560;1283;1016085;-70
2023/11/26 05:01:08;;;;;;;;;;;;;;;1.38;100.00;97712.50;67518;1283;1016340;-69
2023/11/26 05:04:13;;;;;;;;;;;;;;;1.45;100.00;97717.57;67518;1283;1016344;-70
2023/11/26 05:07:18;;;;;;;;;;;;;;;1.49;100.00;97719.14;67551;1283;1016469;-70
2023/11/26 05:10:22;;;;;;;;;;;;;;;1.57;100.00;97725.52;67548;1283;1016421;-70
2023/11/26 05:13:24;;;;;;;;;;;;;;;1.62;100.00;97726.88;67560;1283;1016843;-70
2023/11/26 05:16:27;;;;;;;;;;;;;;;1.65;100.00;97740.68;67502;1283;1016411;-69
2023/11/26 05:19:30;;;;;;;;;;;;;;;1.64;100.00;97752.28;67517;1283;1019367;-68
2023/11/26 05:22:32;;;;;;;;;;;;;;;1.63;100.00;97756.45;67558;1282;1016070;-70
2023/11/26 05:25:35;;;;;;;;;;;;;;;1.67;100.00;97760.27;67529;1283;1016418;-70
2023/11/26 05:28:38;;;;;;;;;;;;;;;1.73;100.00;97759.81;67525;1283;1016504;-69
2023/11/26 05:31:40;;;;;;;;;;;;;;;1.70;100.00;97766.66;67549;1282;1017063;-70
2023/11/26 05:34:43;;;;;;;;;;;;;;;1.74;100.00;97774.11;67552;1283;1016510;-70
2023/11/26 05:37:45;;;;;;;;;;;;;;;1.74;100.00;97777.89;67512;1283;1016450;-70
2023/11/26 05:40:48;;;;;;;;;;;;;;;1.70;100.00;97783.05;67508;1282;1016434;-69
2023/11/26 05:43:50;;;;;;;;;;;;;;;1.62;100.00;97792.35;67547;1283;1016124;-70
2023/11/26 05:46:53;;;;;;;;;;;;;;;1.50;100.00;97800.40;67542;1283;1016431;-70
2023/11/26 05:49:56;;;;;;;;;;;;;;;1.61;100.00;97804.59;67502;1283;1016511;-71
2023/11/26 05:52:58;;;;;;;;;;;;;;;1.67;100.00;97804.70;67503;1283;1016408;-70
2023/11/26 05:56:01;;;;;;;;;;;;;;;1.44;100.00;97805.98;67536;1283;1016504;-71
2023/11/26 05:59:03;;;;;;;;;;;;;;;1.52;100.00;97817.74;67534;1283;1016447;-70
2023/11/26 06:02:06;;;;;;;;;;;;;;;1.42;100.00;97824.35;67497;1282;1016289;-70
2023/11/26 06:05:09;;;;;;;;;;;;;;;1.29;100.00;97826.23;67484;1283;1016448;-70
2023/11/26 06:08:11;;;;;;;;;;;;;;;1.17;100.00;97830.84;67544;1283;1016423;-70
2023/11/26 06:11:14;;;;;;;;;;;;;;;1.14;100.00;97835.05;67529;1283;1015716;-70
2023/11/26 06:14:16;;;;;;;;;;;;;;;1.11;100.00;97833.27;67498;1283;1016119;-69
2023/11/26 06:17:19;;;;;;;;;;;;;;;1.16;100.00;97835.48;67499;1283;1018158;-70
2023/11/26 06:20:22;;;;;;;;;;;;;;;1.13;100.00;97836.64;67556;1283;1016453;-70
2023/11/26 06:23:25;;;;;;;;;;;;;;;1.17;100.00;97838.91;67505;1283;1016058;-71
2023/11/26 06:26:27;;;;;;;;;;;;;;;1.07;100.00;97847.73;67511;1282;1016074;-70
2023/11/26 06:29:30;;;;;;;;;;;;;;;1.05;100.00;97854.19;67523;1283;1016690;-70
2023/11/26 06:32:32;;;;;;;;;;;;;;;1.00;100.00;97859.02;67492;1283;1015970;-70
2023/11/26 06:35:35;;;;;;;;;;;;;;;1.02;100.00;97859.44;67501;1282;1016362;-70
2023/11/26 06:38:38;;;;;;;;;;;;;;;1.10;100.00;97863.79;67532;1283;1016379;-70
2023/11/26 06:41:41;;;;;;;;;;;;;;;1.24;100.00;97861.89;67532;1282;1016518;-70
2023/11/26 06:44:43;;;;;;;;;;;;;;;1.28;100.00;97867.77;67502;1282;1016215;-69
2023/11/26 06:47:46;;;;;;;;;;;;;;;1.28;100.00;97870.02;67522;1283;1016446;-70
2023/11/26 06:50:48;;;;;;;;;;;;;;;1.28;100.00;97872.09;67523;1283;1016404;-70
2023/11/26 06:53:51;;;;;;;;;;;;;;;1.37;100.00;97875.67;67488;1282;1016460;-70
2023/11/26 06:56:54;;;;;;;;;;;;;;;1.40;100.00;97879.54;67513;1283;1016725;-65
2023/11/26 06:59:57;;;;;;;;;;;;;;;1.31;100.00;97879.20;67521;1282;1016366;-66
2023/11/26 07:03:00;;;;;;;;;;;;;;;1.27;100.00;97881.76;67506;1282;1016616;-70
2023/11/26 07:06:02;;;;;;;;;;;;;;;1.11;100.00;97883.93;67508;1282;1019166;-69
2023/11/26 07:09:09;;;;;;;;;;;;;;;1.21;100.00;97881.82;67528;1283;1016557;-69
2023/11/26 07:12:11;;;;;;;;;;;;;;;1.23;100.00;97887.61;67497;1283;1015811;-70
2023/11/26 07:15:14;;;;;;;;;;;;;;;1.14;100.00;97892.05;67493;1282;1016491;-70
2023/11/26 07:18:17;;;;;;;;;;;;;;;1.20;100.00;97899.77;67502;1283;1016105;-69
2023/11/26 07:21:19;;;;;;;;;;;;;;;1.26;100.00;97904.54;67464;1283;1016434;-69
2023/11/26 07:24:22;;;;;;;;;;;;;;;1.32;100.00;97904.84;67521;1283;1016496;-69
2023/11/26 07:27:25;;;;;;;;;;;;;;;1.47;100.00;97912.36;67536;1283;1016450;-69
2023/11/26 07:30:28;;;;;;;;;;;;;;;1.51;100.00;97911.69;67498;1283;1016219;-70
2023/11/26 07:33:31;;;;;;;;;;;;;;;1.55;100.00;97913.75;67542;1282;1016487;-70
2023/11/26 07:36:33;;;;;;;;;;;;;;;1.46;100.00;97915.30;67482;1283;1016348;-70
2023/11/26 07:39:36;;;;;;;;;;;;;;;1.44;100.00;97916.42;67490;1283;1016565;-70
2023/11/26 07:42:40;;;;;;;;;;;;;;;1.43;100.00;97919.04;67509;1283;1016224;-70
2023/11/26 07:45:43;;;;;;;;;;;;;;;1.44;100.00;97912.80;67509;1282;1016379;-70
2023/11/26 07:48:46;;;;;;;;;;;;;;;1.51;100.00;97920.80;67544;1283;1017290;-70
2023/11/26 07:51:49;;;;;;;;;;;;;;;1.49;100.00;97919.48;67506;1283;1016481;-70
2023/11/26 07:54:51;;;;;;;;;;;;;;;1.45;100.00;97927.41;67504;1283;1016357;-70
2023/11/26 07:57:54;;;;;;;;;;;;;;;1.47;100.00;97930.27;67496;1282;1016408;-69
2023/11/26 08:00:56;;;;;;;;;;;;;;;1.51;100.00;97935.80;67536;1283;1016230;-70
2023/11/26 08:04:00;;;;;;;;;;;;;;;1.63;100.00;97940.70;67527;1283;1016505;-70
2023/11/26 08:07:03;;;;;;;;;;;;;;;1.49;100.00;97942.78;67513;1283;1016796;-69
2023/11/26 08:10:10;;;;;;;;;;;;;;;1.63;100.00;97952.39;67476;1283;1016386;-70
2023/11/26 08:13:12;;;;;;;;;;;;;;;1.79;100.00;97955.91;67475;1283;1018209;-70
2023/11/26 08:16:17;;;;;;;;;;;;;;;1.91;100.00;97960.95;67536;1283;1016460;-70
2023/11/26 08:19:23;;;;;;;;;;;;;;;1.92;100.00;97961.95;67478;1282;1016444;-70
2023/11/26 08:22:26;;;;;;;;;;;;;;;1.98;100.00;97967.91;67485;1283;1016364;-70
2023/11/26 08:25:33;;;;;;;;;;;;;;;1.94;100.00;97964.98;67531;1283;1016493;-68
2023/11/26 08:28:36;;;;;;;;;;;;;;;2.04;100.00;97967.69;67512;1283;1016449;-70
2023/11/26 08:31:39;;;;;;;;;;;;;;;1.87;100.00;97970.95;67512;1283;1016295;-70
2023/11/26 08:34:44;;;;;;;;;;;;;;;1.92;100.00;97975.61;67519;1283;1016520;-69
2023/11/26 08:37:47;;;;;;;;;;;;;;;1.82;100.00;97971.50;67437;1283;1015948;-69
2023/11/26 08:40:50;;;;;;;;;;;;;;;2.03;100.00;97972.92;67525;1283;1016460;-70
2023/11/26 08:43:55;;;;;;;;;;;;;;;2.12;100.00;97970.30;67490;1282;1016414;-70
2023/11/26 08:46:58;;;;;;;;;;;;;;;2.29;100.00;97979.64;67491;1282;1016311;-70
2023/11/26 08:50:01;;;;;;;;;;;;;;;2.38;100.00;97979.44;67480;1283;1016442;-70
2023/11/26 08:53:05;;;;;;;;;;;;;;;2.47;100.00;97986.33;67527;1283;1016253;-70
2023/11/26 08:56:08;;;;;;;;;;;;;;;2.53;100.00;97981.92;67488;1283;1017123;-70
2023/11/26 08:59:10;;;;;;;;;;;;;;;2.43;100.00;97993.05;67505;1283;1016587;-70
2023/11/26 09:02:13;;;;;;;;;;;;;;;2.34;100.00;98002.56;67493;1283;1016417;-69
2023/11/26 09:05:15;;;;;;;;;;;;;;;2.11;100.00;97996.55;67504;1283;1015957;-70
2023/11/26 09:08:21;;;;;;;;;;;;;;;2.18;100.00;97993.54;67485;1282;1016399;-69
2023/11/26 09:11:24;;;;;;;;;;;;;;;2.27;100.00;97991.98;67539;1283;1016399;-68
2023/11/26 09:14:26;;;;;;;;;;;;;;;2.36;100.00;97995.38;67498;1283;1016123;-69
2023/11/26 09:17:29;;;;;;;;;;;;;;;2.29;100.00;98000.84;67493;1283;1016609;-70
2023/11/26 09:20:33;;;;;;;;;;;;;;;2.26;100.00;98000.62;67488;1283;1016221;-68
2023/11/26 09:23:36;;;;;;;;;;;;;;;2.23;100.00;98001.08;67481;1283;1016465;-70
2023/11/26 09:26:38;;;;;;;;;;;;;;;2.05;100.00;98013.52;67498;1283;1016400;-70
2023/11/26 09:29:41;;;;;;;;;;;;;;;1.99;100.00;98007.21;67511;1283;1016489;-70
2023/11/26 09:32:44;;;;;;;;;;;;;;;2.05;100.00;98001.81;67516;1283;1016408;-69
2023/11/26 09:35:47;;;;;;;;;;;;;;;2.07;100.00;98001.04;67511;1282;1016706;-69
2023/11/26 09:38:49;;;;;;;;;;;;;;;2.33;100.00;98000.49;67486;1283;1016448;-69
2023/11/26 09:41:52;;;;;;;;;;;;;;;2.67;100.00;97997.40;67518;1283;1016600;-70
2023/11/26 09:44:54;;;;;;;;;;;;;;;2.73;100.00;98007.30;67502;1282;1017245;-70
2023/11/26 09:47:57;;;;;;;;;;;;;;;2.78;100.00;98007.10;67467;1283;1016442;-70
2023/11/26 09:50:59;;;;;;;;;;;;;;;2.85;100.00;98009.06;67499;1282;1018334;-70
2023/11/26 09:54:04;;;;;;;;;;;;;;;2.80;100.00;98007.91;67536;1282;1016521;-68
2023/11/26 09:57:06;;;;;;;;;;;;;;;2.81;100.00;98007.67;67490;1283;1017294;-70
2023/11/26 10:00:12;;;;;;;;;;;;;;;2.95;100.00;98007.61;67510;1283;1016367;-70
2023/11/26 10:03:14;;;;;;;;;;;;;;;2.90;100.00;98003.13;67525;1282;1016406;-70
2023/11/26 10:06:17;;;;;;;;;;;;;;;3.06;100.00;98004.71;67489;1283;1016361;-69
2023/11/26 10:09:20;;;;;;;;;;;;;;;3.17;100.00;98010.13;67534;1283;1016494;-66
2023/11/26 10:12:23;;;;;;;;;;;;;;;3.06;100.00;98012.32;67486;1282;1016287;-70
2023/11/26 10:15:26;;;;;;;;;;;;;;;3.08;100.00;98014.96;67500;1282;1016105;-70
2023/11/26 10:18:28;;;;;;;;;;;;;;;3.00;100.00;98016.52;67496;1283;1016504;-70
2023/11/26 10:21:31;;;;;;;;;;;;;;;2.99;100.00;98023.49;67495;1282;1018960;-70
2023/11/26 10:24:34;;;;;;;;;;;;;;;3.05;100.00;98027.41;67512;1282;1016318;-69
2023/11/26 10:27:36;;;;;;;;;;;;;;;3.05;100.00;98026.70;67504;1282;1016460;-69
2023/11/26 10:30:39;;;;;;;;;;;;;;;3.13;100.00;98025.99;67503;1282;1016414;-70
2023/11/26 10:33:41;;;;;;;;;;;;;;;3.24;100.00;98024.11;67466;1282;1016952;-70
2023/11/26 10:36:44;;;;;;;;;;;;;;;3.23;100.00;98033.86;67512;1283;1016621;-70
2023/11/26 10:39:46;;;;;;;;;;;;;;;3.11;100.00;98034.36;67536;1282;1016422;-69
2023/11/26 10:42:49;;;;;;;;;;;;;;;3.22;100.00;98035.84;67490;1282;1016410;-70
2023/11/26 10:45:52;;;;;;;;;;;;;;;3.29;100.00;98038.08;67480;1282;1016489;-70
2023/11/26 10:48:54;;;;;;;;;;;;;;;3.00;100.00;98043.85;67522;1283;1016399;-69
2023/11/26 10:51:57;;;;;;;;;;;;;;;3.02;100.00;98038.56;67531;1282;1018481;-70
2023/11/26 10:54:59;;;;;;;;;;;;;;;3.09;100.00;98038.95;67475;1283;1016463;-70
2023/11/26 10:58:02;;;;;;;;;;;;;;;3.23;100.00;98042.66;67490;1283;1016194;-69
2023/11/26 11:01:05;;;;;;;;;;;;;;;3.32;100.00;98045.21;67508;1283;1016481;-70
2023/11/26 11:04:08;;;;;;;;;;;;;;;3.03;100.00;98050.27;67473;1282;1016159;-70
2023/11/26 11:07:11;;;;;;;;;;;;;;;2.91;100.00;98050.58;67530;1282;1016526;-70
2023/11/26 11:10:13;;;;;;;;;;;;;;;2.79;100.00;98047.30;67497;1282;1016419;-70
2023/11/26 11:13:16;;;;;;;;;;;;;;;2.83;100.00;98052.85;67461;1282;1016480;-70
2023/11/26 11:16:19;;;;;;;;;;;;;;;2.82;100.00;98058.42;67511;1283;1016460;-70
2023/11/26 11:19:21;;;;;;;;;;;;;;;2.78;100.00;98067.21;67493;1282;1016351;-70
2023/11/26 11:22:24;;;;;;;;;;;;;;;2.62;100.00;98075.82;67507;1282;1016349;-70
2023/11/26 11:25:28;;;;;;;;;;;;;;;2.74;100.00;98062.17;67473;1282;1016419;-69
2023/11/26 11:28:31;;;;;;;;;;;;;;;2.85;100.00;98059.85;67489;1283;1016407;-70
2023/11/26 11:31:33;;;;;;;;;;;;;;;2.76;100.00;98073.86;67508;1282;1018106;-70
2023/11/26 11:34:36;;;;;;;;;;;;;;;2.61;100.00;98070.98;67517;1283;1016407;-69
2023/11/26 11:37:39;;;;;;;;;;;;;;;2.49;100.00;98076.16;67468;1282;1015902;-70
2023/11/26 11:40:41;;;;;;;;;;;;;;;2.55;100.00;98075.23;67536;1283;1016380;-70
2023/11/26 11:43:44;;;;;;;;;;;;;;;2.48;100.00;98080.33;67502;1283;1016550;-70
2023/11/26 11:46:46;;;;;;;;;;;;;;;2.41;100.00;98076.64;67489;1282;1016437;-70
2023/11/26 11:49:49;;;;;;;;;;;;;;;2.40;100.00;98080.30;67502;1282;1016474;-71
2023/11/26 11:52:52;;;;;;;;;;;;;;;2.48;100.00;98071.36;67543;1283;1016410;-69
2023/11/26 11:55:55;;;;;;;;;;;;;;;2.54;100.00;98073.19;67524;1283;1016849;-68
2023/11/26 11:58:57;;;;;;;;;;;;;;;2.58;100.00;98069.89;67476;1283;1016402;-70
2023/11/26 12:02:00;;;;;;;;;;;;;;;2.54;100.00;98073.21;67523;1283;1016428;-69
2023/11/26 12:05:03;;;;;;;;;;;;;;;2.52;100.00;98071.36;67535;1283;1016429;-69
2023/11/26 12:08:06;;;;;;;;;;;;;;;2.44;100.00;98071.50;67528;1283;1016402;-70
2023/11/26 12:11:11;;;;;;;;;;;;;;;2.25;100.00;98077.77;67517;1282;1016377;-70
2023/11/26 12:14:13;;;;;;;;;;;;;;;2.23;100.00;98071.96;67480;1282;1016463;-70
2023/11/26 12:17:16;;;;;;;;;;;;;;;2.27;100.00;98071.31;67534;1282;1016036;-70
2023/11/26 12:20:19;;;;;;;;;;;;;;;2.23;100.00;98076.80;67540;1282;1016342;-67
2023/11/26 12:23:22;;;;;;;;;;;;;;;2.24;100.00;98074.35;67527;1282;1016828;-70
2023/11/26 12:26:25;;;;;;;;;;;;;;;2.26;100.00;98074.29;67531;1282;1016434;-70
2023/11/26 12:29:28;;;;;;;;;;;;;;;2.21;100.00;98078.45;67473;1283;1016273;-70
2023/11/26 12:32:30;;;;;;;;;;;;;;;2.22;100.00;98082.38;67499;1283;1015716;-70
2023/11/26 12:35:33;;;;;;;;;;;;;;;2.32;100.00;98078.36;67546;1282;1016455;-69
2023/11/26 12:38:36;;;;;;;;;;;;;;;2.39;100.00;98086.20;67501;1283;1016418;-69
2023/11/26 12:41:39;;;;;;;;;;;;;;;2.41;100.00;98080.60;67521;1283;1016442;-70
2023/11/26 12:44:42;;;;;;;;;;;;;;;2.40;100.00;98083.39;67473;1283;1016087;-70
2023/11/26 12:47:44;;;;;;;;;;;;;;;2.34;100.00;98094.35;67498;1283;1018399;-67
2023/11/26 12:50:47;;;;;;;;;;;;;;;2.32;100.00;98097.34;67520;1283;1016546;-69
2023/11/26 12:53:50;;;;;;;;;;;;;;;2.31;100.00;98097.41;67500;1283;1016355;-70
2023/11/26 12:56:53;;;;;;;;;;;;;;;2.43;100.00;98098.83;67487;1283;1016245;-69
2023/11/26 12:59:57;;;;;;;;;;;;;;;2.60;100.00;98104.36;67529;1282;1016308;-70
2023/11/26 13:03:00;;;;;;;;;;;;;;;2.53;100.00;98107.77;67491;1282;1016091;-70
2023/11/26 13:06:05;;;;;;;;;;;;;;;2.54;100.00;98117.38;67506;1283;1016440;-68
2023/11/26 13:09:07;;;;;;;;;;;;;;;2.52;100.00;98123.46;67511;1282;1018657;-69
2023/11/26 13:12:11;;;;;;;;;;;;;;;2.52;100.00;98126.96;67497;1283;1016392;-70
2023/11/26 13:15:14;;;;;;;;;;;;;;;2.53;100.00;98129.50;67532;1282;1016206;-70
2023/11/26 13:18:17;;;;;;;;;;;;;;;2.42;100.00;98130.79;67522;1283;1016477;-70
2023/11/26 13:21:20;;;;;;;;;;;;;;;2.37;100.00;98123.73;67529;1283;1016426;-70
2023/11/26 13:24:22;;;;;;;;;;;;;;;2.23;100.00;98123.55;67474;1282;1016439;-70
2023/11/26 13:27:26;;;;;;;;;;;;;;;2.19;100.00;98132.34;67518;1283;1016160;-70
2023/11/26 13:30:31;;;;;;;;;;;;;;;2.23;100.00;98134.94;67524;1283;1017233;-70
2023/11/26 13:33:40;;;;;;;;;;;;;;;2.35;100.00;98129.66;67477;1282;1017741;-70
2023/11/26 13:36:42;;;;;;;;;;;;;;;2.22;100.00;98130.16;67476;1283;1016527;-70
2023/11/26 13:39:45;;;;;;;;;;;;;;;2.18;100.00;98129.27;67514;1283;1016368;-70
2023/11/26 13:42:48;;;;;;;;;;;;;;;2.10;100.00;98128.02;67479;1283;1016509;-70
2023/11/26 13:45:50;;;;;;;;;;;;;;;2.11;100.00;98134.05;67490;1282;1016570;-70
2023/11/26 13:48:53;;;;;;;;;;;;;;;2.14;100.00;98130.66;67556;1282;1016545;-70
2023/11/26 13:51:59;;;;;;;;;;;;;;;2.19;100.00;98130.96;67455;1282;1016507;-70
2023/11/26 13:55:02;;;;;;;;;;;;;;;2.14;100.00;98129.77;67524;1283;1016423;-70
2023/11/26 13:58:04;;;;;;;;;;;;;;;2.11;100.00;98136.09;67521;1283;1016459;-70
2023/11/26 14:01:08;;;;;;;;;;;;;;;2.02;100.00;98130.54;67536;1283;1016398;-70
2023/11/26 14:04:11;;;;;;;;;;;;;;;2.01;100.00;98141.64;67515;1283;1016421;-70
2023/11/26 14:07:14;;;;;;;;;;;;;;;2.03;100.00;98146.92;67503;1283;1016526;-70
2023/11/26 14:10:18;;;;;;;;;;;;;;;1.95;100.00;98145.14;67473;1282;1016541;-70
2023/11/26 14:13:21;;;;;;;;;;;;;;;1.99;100.00;98148.77;67524;1283;1016415;-70
2023/11/26 14:16:23;;;;;;;;;;;;;;;1.96;100.00;98150.27;67534;1282;1018165;-69
2023/11/26 14:19:26;;;;;;;;;;;;;;;1.99;100.00;98147.58;67546;1283;1016331;-71
2023/11/26 14:22:29;;;;;;;;;;;;;;;1.99;100.00;98152.73;67520;1281;1016212;-69
2023/11/26 14:25:32;;;;;;;;;;;;;;;2.04;100.00;98149.11;67505;1283;1016248;-68
2023/11/26 14:28:35;;;;;;;;;;;;;;;2.00;100.00;98161.48;67523;1283;1018094;-70
2023/11/26 14:31:38;;;;;;;;;;;;;;;1.95;100.00;98163.77;67506;1283;1016000;-70
2023/11/26 14:34:40;;;;;;;;;;;;;;;1.97;100.00;98158.52;67514;1283;1016439;-70
2023/11/26 14:37:43;;;;;;;;;;;;;;;2.01;100.00;98161.29;67504;1282;1016499;-70
2023/11/26 14:40:46;;;;;;;;;;;;;;;1.97;100.00;98158.70;67525;1283;1017108;-70
2023/11/26 14:43:49;;;;;;;;;;;;;;;1.96;100.00;98158.39;67513;1283;1017414;-68
2023/11/26 14:46:54;;;;;;;;;;;;;;;1.94;100.00;98163.44;67532;1283;1016201;-70
2023/11/26 14:49:57;;;;;;;;;;;;;;;1.90;100.00;98160.84;67500;1283;1016135;-69
2023/11/26 14:53:01;;;;;;;;;;;;;;;1.80;100.00;98166.20;67534;1283;1016476;-69
2023/11/26 14:56:05;;;;;;;;;;;;;;;1.82;100.00;98162.70;67524;1283;1015977;-69
2023/11/26 14:59:08;;;;;;;;;;;;;;;1.82;100.00;98165.10;67516;1283;1017329;-70
2023/11/26 15:02:10;;;;;;;;;;;;;;;1.78;100.00;98170.77;67566;1282;1016283;-70
2023/11/26 15:05:13;;;;;;;;;;;;;;;1.74;100.00;98167.96;67539;1283;1016119;-69
2023/11/26 15:08:16;;;;;;;;;;;;;;;1.78;100.00;98162.14;67529;1283;1015882;-69
2023/11/26 15:11:18;;;;;;;;;;;;;;;1.89;100.00;98163.81;67536;1283;1016479;-70
2023/11/26 15:14:21;;;;;;;;;;;;;;;1.89;100.00;98168.28;67543;1283;1018256;-68
2023/11/26 15:17:24;;;;;;;;;;;;;;;1.81;100.00;98171.00;67468;1283;1016362;-70
2023/11/26 15:20:26;;;;;;;;;;;;;;;1.76;100.00;98168.40;65042;1282;6374022;-70
2023/11/26 15:23:29;;;;;;;;;;;;;;;1.89;100.00;98173.27;67557;1282;1016255;-70
2023/11/26 15:26:32;;;;;;;;;;;;;;;1.71;100.00;98189.09;67511;1283;1016169;-70
2023/11/26 15:29:34;;;;;;;;;;;;;;;1.62;100.00;98188.89;67565;1283;1016200;-70
2023/11/26 15:32:37;;;;;;;;;;;;;;;1.69;100.00;98182.79;67581;1282;1016313;-69